首页
METAR-TAF:

METAR-TAF

机场 :

格倫興, 瑞士

纬度: 47-10-53N, 经度: 007-24-59E, 海拔: 430米

当前天气观测

该预报发布于30分钟前的18:20 UTC
风速2节,风向东北
温度 4°C
湿度 81%
气压 1017 hPa
能见度10公里或以上
多云层高于3200英尺

METAR: LSZG 191820Z AUTO 04002KT 9999 BKN032 04/01 Q1017

时间: 19:50 (18:50 UTC)

预报

该预报发布于4小时和25分钟前的14:25 UTC
预报有效从19日的 15点(UTC)到 19日的 24点(UTC)
风速6节,风向东北
能见度10公里或以上
多云层高于3000英尺

TAF: LSZG 191425Z 1915/1924 05006KT 9999 BKN030

超过4000个机场的气象观测和天气预报(METAR&TAF报告)。

可查询的气象台以黄色和红色小点在地图上表示。

将鼠标移到小点上方,可查看气象台名称。

然后点击查看天气观测和预报。

如需切换地图:点击带黑十字的绿色按钮放大地图;点击带横线的绿色按钮缩小地图;或者点击绿色箭头查看邻近地区的地图。


METAR-TAF: